sensor_id;sensor_type;location;lat;lon;timestamp;P1;durP1;ratioP1;P2;durP2;ratioP2
62256;SDS011;48240;52.962;5.790;2023-04-06T03:52:43;3.10;;;2.22;;
62256;SDS011;48240;52.962;5.790;2023-04-06T03:55:09;3.80;;;2.50;;
62256;SDS011;48240;52.962;5.790;2023-04-06T03:57:35;3.72;;;2.20;;
62256;SDS011;48240;52.962;5.790;2023-04-06T04:00:02;3.17;;;2.03;;
62256;SDS011;48240;52.962;5.790;2023-04-06T04:02:29;2.83;;;2.00;;
62256;SDS011;48240;52.962;5.790;2023-04-06T04:04:55;3.72;;;2.08;;
62256;SDS011;48240;52.962;5.790;2023-04-06T04:07:21;2.75;;;1.73;;
62256;SDS011;48240;52.962;5.790;2023-04-06T04:09:47;3.45;;;2.05;;
62256;SDS011;48240;52.962;5.790;2023-04-06T04:12:13;5.72;;;1.90;;
62256;SDS011;48240;52.962;5.790;2023-04-06T04:14:41;4.68;;;2.25;;
62256;SDS011;48240;52.962;5.790;2023-04-06T04:17:08;2.95;;;2.30;;
62256;SDS011;48240;52.962;5.790;2023-04-06T04:19:35;3.80;;;2.17;;
62256;SDS011;48240;52.962;5.790;2023-04-06T04:22:01;3.45;;;2.05;;
62256;SDS011;48240;52.962;5.790;2023-04-06T04:24:29;2.85;;;2.17;;
62256;SDS011;48240;52.962;5.790;2023-04-06T04:26:56;3.25;;;2.50;;
62256;SDS011;48240;52.962;5.790;2023-04-06T04:29:22;2.40;;;2.17;;
62256;SDS011;48240;52.962;5.790;2023-04-06T04:31:49;2.97;;;2.13;;
62256;SDS011;48240;52.962;5.790;2023-04-06T04:34:16;3.17;;;1.90;;
62256;SDS011;48240;52.962;5.790;2023-04-06T04:36:42;3.25;;;2.28;;
62256;SDS011;48240;52.962;5.790;2023-04-06T04:39:08;3.15;;;2.30;;
62256;SDS011;48240;52.962;5.790;2023-04-06T04:41:34;2.70;;;2.10;;
62256;SDS011;48240;52.962;5.790;2023-04-06T04:44:00;3.55;;;2.35;;
62256;SDS011;48240;52.962;5.790;2023-04-06T04:46:26;3.22;;;2.22;;
62256;SDS011;48240;52.962;5.790;2023-04-06T04:48:52;5.18;;;2.55;;
62256;SDS011;48240;52.962;5.790;2023-04-06T04:51:19;4.05;;;2.40;;
62256;SDS011;48240;52.962;5.790;2023-04-06T04:53:45;5.22;;;2.40;;
62256;SDS011;48240;52.962;5.790;2023-04-06T04:56:11;2.53;;;2.10;;
62256;SDS011;48240;52.962;5.790;2023-04-06T04:58:37;2.83;;;1.95;;
62256;SDS011;48240;52.962;5.790;2023-04-06T05:01:03;4.30;;;2.47;;
62256;SDS011;48240;52.962;5.790;2023-04-06T05:03:29;3.13;;;2.55;;
62256;SDS011;48240;52.962;5.790;2023-04-06T05:05:56;2.97;;;1.98;;
62256;SDS011;48240;52.962;5.790;2023-04-06T05:08:22;3.40;;;2.20;;
62256;SDS011;48240;52.962;5.790;2023-04-06T05:10:48;3.25;;;2.50;;
62256;SDS011;48240;52.962;5.790;2023-04-06T05:13:14;3.03;;;2.17;;
62256;SDS011;48240;52.962;5.790;2023-04-06T05:15:40;4.55;;;2.45;;
62256;SDS011;48240;52.962;5.790;2023-04-06T05:18:07;5.15;;;2.60;;
62256;SDS011;48240;52.962;5.790;2023-04-06T05:20:33;3.20;;;2.38;;
62256;SDS011;48240;52.962;5.790;2023-04-06T05:23:00;3.10;;;2.20;;
62256;SDS011;48240;52.962;5.790;2023-04-06T05:25:26;2.92;;;2.50;;
62256;SDS011;48240;52.962;5.790;2023-04-06T05:27:53;2.85;;;2.47;;
62256;SDS011;48240;52.962;5.790;2023-04-06T05:30:19;3.65;;;2.70;;
62256;SDS011;48240;52.962;5.790;2023-04-06T05:32:46;3.80;;;2.58;;
62256;SDS011;48240;52.962;5.790;2023-04-06T05:35:12;3.03;;;2.45;;
62256;SDS011;48240;52.962;5.790;2023-04-06T05:37:38;3.72;;;2.17;;
62256;SDS011;48240;52.962;5.790;2023-04-06T05:40:05;3.72;;;2.40;;
62256;SDS011;48240;52.962;5.790;2023-04-06T05:42:37;5.00;;;2.60;;
62256;SDS011;48240;52.962;5.790;2023-04-06T05:45:04;2.80;;;2.33;;
62256;SDS011;48240;52.962;5.790;2023-04-06T05:47:30;4.15;;;2.47;;
62256;SDS011;48240;52.962;5.790;2023-04-06T05:49:56;2.92;;;2.25;;
62256;SDS011;48240;52.962;5.790;2023-04-06T05:52:23;3.30;;;2.60;;
62256;SDS011;48240;52.962;5.790;2023-04-06T05:54:49;3.45;;;2.40;;
62256;SDS011;48240;52.962;5.790;2023-04-06T05:57:15;4.53;;;2.78;;
62256;SDS011;48240;52.962;5.790;2023-04-06T05:59:42;3.70;;;2.67;;
62256;SDS011;48240;52.962;5.790;2023-04-06T06:02:08;3.97;;;2.50;;
62256;SDS011;48240;52.962;5.790;2023-04-06T06:04:34;3.28;;;2.28;;
62256;SDS011;48240;52.962;5.790;2023-04-06T06:07:00;2.85;;;2.55;;
62256;SDS011;48240;52.962;5.790;2023-04-06T06:09:26;3.95;;;2.80;;
62256;SDS011;48240;52.962;5.790;2023-04-06T06:11:53;3.40;;;2.65;;
62256;SDS011;48240;52.962;5.790;2023-04-06T06:14:19;3.97;;;2.70;;
62256;SDS011;48240;52.962;5.790;2023-04-06T06:16:45;4.70;;;2.70;;
62256;SDS011;48240;52.962;5.790;2023-04-06T06:19:11;5.30;;;3.00;;
62256;SDS011;48240;52.962;5.790;2023-04-06T06:21:37;4.70;;;3.00;;
62256;SDS011;48240;52.962;5.790;2023-04-06T06:24:03;4.20;;;2.80;;
62256;SDS011;48240;52.962;5.790;2023-04-06T06:26:30;3.45;;;2.80;;
62256;SDS011;48240;52.962;5.790;2023-04-06T06:28:56;3.80;;;2.47;;
62256;SDS011;48240;52.962;5.790;2023-04-06T06:31:22;3.78;;;2.75;;
62256;SDS011;48240;52.962;5.790;2023-04-06T06:33:49;4.22;;;3.08;;
62256;SDS011;48240;52.962;5.790;2023-04-06T06:36:16;4.85;;;3.10;;
62256;SDS011;48240;52.962;5.790;2023-04-06T06:38:43;3.42;;;2.65;;
62256;SDS011;48240;52.962;5.790;2023-04-06T06:41:09;4.63;;;2.95;;
62256;SDS011;48240;52.962;5.790;2023-04-06T06:43:35;4.25;;;2.90;;
62256;SDS011;48240;52.962;5.790;2023-04-06T06:46:02;4.07;;;2.90;;
62256;SDS011;48240;52.962;5.790;2023-04-06T06:48:28;4.32;;;2.90;;
62256;SDS011;48240;52.962;5.790;2023-04-06T06:50:54;4.75;;;2.90;;
62256;SDS011;48240;52.962;5.790;2023-04-06T06:53:20;4.47;;;3.25;;
62256;SDS011;48240;52.962;5.790;2023-04-06T06:55:47;6.38;;;3.30;;
62256;SDS011;48240;52.962;5.790;2023-04-06T06:58:19;5.15;;;3.25;;
62256;SDS011;48240;52.962;5.790;2023-04-06T07:00:45;6.95;;;3.60;;
62256;SDS011;48240;52.962;5.790;2023-04-06T07:03:12;5.05;;;3.40;;
62256;SDS011;48240;52.962;5.790;2023-04-06T07:05:38;4.60;;;3.20;;
62256;SDS011;48240;52.962;5.790;2023-04-06T07:08:04;5.53;;;3.50;;
62256;SDS011;48240;52.962;5.790;2023-04-06T07:10:30;4.53;;;2.90;;
62256;SDS011;48240;52.962;5.790;2023-04-06T07:12:56;6.00;;;3.45;;
62256;SDS011;48240;52.962;5.790;2023-04-06T07:15:22;4.32;;;3.45;;
62256;SDS011;48240;52.962;5.790;2023-04-06T07:17:48;6.18;;;3.80;;
62256;SDS011;48240;52.962;5.790;2023-04-06T07:20:15;6.70;;;3.75;;
62256;SDS011;48240;52.962;5.790;2023-04-06T07:22:42;5.63;;;3.35;;
62256;SDS011;48240;52.962;5.790;2023-04-06T07:25:09;5.72;;;3.78;;
62256;SDS011;48240;52.962;5.790;2023-04-06T07:27:35;5.85;;;3.75;;
62256;SDS011;48240;52.962;5.790;2023-04-06T07:30:01;7.15;;;3.60;;
62256;SDS011;48240;52.962;5.790;2023-04-06T07:32:27;6.60;;;4.15;;
62256;SDS011;48240;52.962;5.790;2023-04-06T07:34:55;6.93;;;4.10;;
62256;SDS011;48240;52.962;5.790;2023-04-06T07:37:21;5.45;;;3.63;;
62256;SDS011;48240;52.962;5.790;2023-04-06T07:39:47;7.43;;;3.85;;
62256;SDS011;48240;52.962;5.790;2023-04-06T07:42:13;10.90;;;4.70;;
62256;SDS011;48240;52.962;5.790;2023-04-06T07:44:40;7.05;;;4.47;;
62256;SDS011;48240;52.962;5.790;2023-04-06T07:47:06;8.98;;;4.65;;
62256;SDS011;48240;52.962;5.790;2023-04-06T07:49:32;7.88;;;4.72;;
62256;SDS011;48240;52.962;5.790;2023-04-06T07:51:58;10.02;;;5.53;;
62256;SDS011;48240;52.962;5.790;2023-04-06T07:54:24;8.20;;;5.03;;
62256;SDS011;48240;52.962;5.790;2023-04-06T07:56:50;9.88;;;5.28;;
62256;SDS011;48240;52.962;5.790;2023-04-06T07:59:16;9.48;;;5.55;;
62256;SDS011;48240;52.962;5.790;2023-04-06T08:01:42;9.75;;;4.90;;
62256;SDS011;48240;52.962;5.790;2023-04-06T08:04:09;8.93;;;5.32;;
62256;SDS011;48240;52.962;5.790;2023-04-06T08:06:35;11.57;;;6.00;;
62256;SDS011;48240;52.962;5.790;2023-04-06T08:09:01;13.80;;;5.72;;
62256;SDS011;48240;52.962;5.790;2023-04-06T08:11:28;13.95;;;6.15;;
62256;SDS011;48240;52.962;5.790;2023-04-06T08:13:54;10.20;;;5.75;;
62256;SDS011;48240;52.962;5.790;2023-04-06T08:16:22;11.23;;;6.13;;
62256;SDS011;48240;52.962;5.790;2023-04-06T08:18:48;8.93;;;5.38;;
62256;SDS011;48240;52.962;5.790;2023-04-06T08:21:14;9.15;;;5.07;;
62256;SDS011;48240;52.962;5.790;2023-04-06T08:23:40;9.65;;;5.68;;
62256;SDS011;48240;52.962;5.790;2023-04-06T08:26:06;14.45;;;6.53;;
62256;SDS011;48240;52.962;5.790;2023-04-06T08:28:32;10.15;;;6.10;;
62256;SDS011;48240;52.962;5.790;2023-04-06T08:31:02;11.23;;;5.63;;
62256;SDS011;48240;52.962;5.790;2023-04-06T08:33:29;13.43;;;6.63;;
62256;SDS011;48240;52.962;5.790;2023-04-06T08:35:56;9.38;;;5.80;;
62256;SDS011;48240;52.962;5.790;2023-04-06T08:38:22;9.68;;;5.93;;
62256;SDS011;48240;52.962;5.790;2023-04-06T08:40:48;9.10;;;5.97;;
62256;SDS011;48240;52.962;5.790;2023-04-06T08:43:16;10.82;;;6.13;;
62256;SDS011;48240;52.962;5.790;2023-04-06T08:45:42;13.30;;;6.72;;
62256;SDS011;48240;52.962;5.790;2023-04-06T08:48:09;13.95;;;6.85;;
62256;SDS011;48240;52.962;5.790;2023-04-06T08:50:35;10.07;;;6.40;;
62256;SDS011;48240;52.962;5.790;2023-04-06T08:53:02;11.35;;;6.85;;
62256;SDS011;48240;52.962;5.790;2023-04-06T08:55:28;9.85;;;6.35;;
62256;SDS011;48240;52.962;5.790;2023-04-06T08:57:54;12.85;;;6.53;;
62256;SDS011;48240;52.962;5.790;2023-04-06T09:00:21;11.30;;;6.03;;
62256;SDS011;48240;52.962;5.790;2023-04-06T09:02:48;12.85;;;6.68;;
62256;SDS011;48240;52.962;5.790;2023-04-06T09:05:15;10.20;;;6.07;;
62256;SDS011;48240;52.962;5.790;2023-04-06T09:07:41;11.07;;;6.38;;
62256;SDS011;48240;52.962;5.790;2023-04-06T09:10:07;11.10;;;5.85;;
62256;SDS011;48240;52.962;5.790;2023-04-06T09:12:34;13.00;;;6.05;;
62256;SDS011;48240;52.962;5.790;2023-04-06T09:15:00;9.63;;;6.10;;
62256;SDS011;48240;52.962;5.790;2023-04-06T09:17:30;9.32;;;6.22;;
62256;SDS011;48240;52.962;5.790;2023-04-06T09:19:59;10.80;;;6.05;;
62256;SDS011;48240;52.962;5.790;2023-04-06T09:22:25;10.35;;;6.10;;
62256;SDS011;48240;52.962;5.790;2023-04-06T09:24:53;13.43;;;7.32;;
62256;SDS011;48240;52.962;5.790;2023-04-06T09:27:32;11.68;;;6.03;;
62256;SDS011;48240;52.962;5.790;2023-04-06T09:32:31;12.27;;;6.75;;
62256;SDS011;48240;52.962;5.790;2023-04-06T09:35:07;10.20;;;6.72;;
62256;SDS011;48240;52.962;5.790;2023-04-06T09:37:33;9.85;;;6.20;;
62256;SDS011;48240;52.962;5.790;2023-04-06T09:40:03;10.73;;;6.57;;
62256;SDS011;48240;52.962;5.790;2023-04-06T09:42:30;9.88;;;5.93;;
62256;SDS011;48240;52.962;5.790;2023-04-06T09:44:56;9.32;;;5.85;;
62256;SDS011;48240;52.962;5.790;2023-04-06T09:47:22;12.40;;;6.57;;
62256;SDS011;48240;52.962;5.790;2023-04-06T09:49:50;8.50;;;6.05;;
62256;SDS011;48240;52.962;5.790;2023-04-06T09:52:16;11.35;;;6.75;;
62256;SDS011;48240;52.962;5.790;2023-04-06T09:54:43;10.18;;;6.25;;
62256;SDS011;48240;52.962;5.790;2023-04-06T09:57:19;8.52;;;5.88;;
62256;SDS011;48240;52.962;5.790;2023-04-06T10:02:16;10.38;;;5.90;;
62256;SDS011;48240;52.962;5.790;2023-04-06T10:04:48;10.68;;;6.38;;
62256;SDS011;48240;52.962;5.790;2023-04-06T10:07:17;8.38;;;6.28;;
62256;SDS011;48240;52.962;5.790;2023-04-06T10:09:44;9.32;;;6.22;;
62256;SDS011;48240;52.962;5.790;2023-04-06T10:12:11;10.38;;;6.15;;
62256;SDS011;48240;52.962;5.790;2023-04-06T10:14:38;10.85;;;6.05;;
62256;SDS011;48240;52.962;5.790;2023-04-06T10:17:06;10.05;;;6.13;;
62256;SDS011;48240;52.962;5.790;2023-04-06T10:19:39;11.35;;;6.30;;
62256;SDS011;48240;52.962;5.790;2023-04-06T10:22:08;11.30;;;6.90;;
62256;SDS011;48240;52.962;5.790;2023-04-06T10:24:36;12.63;;;6.50;;
62256;SDS011;48240;52.962;5.790;2023-04-06T10:27:02;10.20;;;6.35;;
62256;SDS011;48240;52.962;5.790;2023-04-06T10:29:40;14.00;;;6.55;;
62256;SDS011;48240;52.962;5.790;2023-04-06T10:32:06;11.05;;;6.45;;
62256;SDS011;48240;52.962;5.790;2023-04-06T10:34:35;8.57;;;5.63;;
62256;SDS011;48240;52.962;5.790;2023-04-06T10:37:14;10.60;;;6.10;;
62256;SDS011;48240;52.962;5.790;2023-04-06T10:39:47;8.55;;;6.10;;
62256;SDS011;48240;52.962;5.790;2023-04-06T10:42:13;11.18;;;6.20;;
62256;SDS011;48240;52.962;5.790;2023-04-06T10:44:43;9.40;;;5.78;;
62256;SDS011;48240;52.962;5.790;2023-04-06T10:47:17;13.32;;;6.60;;
62256;SDS011;48240;52.962;5.790;2023-04-06T10:49:43;11.13;;;6.15;;
62256;SDS011;48240;52.962;5.790;2023-04-06T10:52:10;10.05;;;6.18;;
62256;SDS011;48240;52.962;5.790;2023-04-06T10:54:38;8.82;;;6.18;;
62256;SDS011;48240;52.962;5.790;2023-04-06T10:57:06;8.35;;;5.75;;
62256;SDS011;48240;52.962;5.790;2023-04-06T10:59:32;11.07;;;5.97;;
62256;SDS011;48240;52.962;5.790;2023-04-06T11:01:58;8.40;;;5.78;;
62256;SDS011;48240;52.962;5.790;2023-04-06T11:04:25;9.45;;;6.07;;
62256;SDS011;48240;52.962;5.790;2023-04-06T11:06:51;9.27;;;5.85;;
62256;SDS011;48240;52.962;5.790;2023-04-06T11:09:24;10.32;;;6.47;;
62256;SDS011;48240;52.962;5.790;2023-04-06T11:11:51;8.40;;;5.50;;
62256;SDS011;48240;52.962;5.790;2023-04-06T11:14:17;10.20;;;6.32;;
62256;SDS011;48240;52.962;5.790;2023-04-06T11:16:45;9.43;;;6.30;;
62256;SDS011;48240;52.962;5.790;2023-04-06T11:19:13;12.23;;;6.65;;
62256;SDS011;48240;52.962;5.790;2023-04-06T11:21:40;11.73;;;6.28;;
62256;SDS011;48240;52.962;5.790;2023-04-06T11:24:16;10.27;;;6.63;;
62256;SDS011;48240;52.962;5.790;2023-04-06T11:26:44;10.15;;;6.30;;
62256;SDS011;48240;52.962;5.790;2023-04-06T11:29:17;10.23;;;6.75;;
62256;SDS011;48240;52.962;5.790;2023-04-06T11:31:47;11.73;;;6.80;;
62256;SDS011;48240;52.962;5.790;2023-04-06T11:34:17;10.75;;;6.72;;
62256;SDS011;48240;52.962;5.790;2023-04-06T11:36:44;9.73;;;6.68;;
62256;SDS011;48240;52.962;5.790;2023-04-06T11:39:11;10.05;;;6.18;;
62256;SDS011;48240;52.962;5.790;2023-04-06T11:41:37;11.75;;;6.65;;
62256;SDS011;48240;52.962;5.790;2023-04-06T11:44:03;10.57;;;6.55;;
62256;SDS011;48240;52.962;5.790;2023-04-06T11:46:31;10.48;;;6.38;;
62256;SDS011;48240;52.962;5.790;2023-04-06T11:48:58;9.05;;;6.28;;
62256;SDS011;48240;52.962;5.790;2023-04-06T11:51:25;9.55;;;6.70;;
62256;SDS011;48240;52.962;5.790;2023-04-06T11:53:52;11.85;;;6.80;;
62256;SDS011;48240;52.962;5.790;2023-04-06T11:56:28;12.05;;;7.15;;
62256;SDS011;48240;52.962;5.790;2023-04-06T11:58:57;10.52;;;7.07;;
62256;SDS011;48240;52.962;5.790;2023-04-06T12:01:27;11.35;;;6.97;;
62256;SDS011;48240;52.962;5.790;2023-04-06T12:03:53;9.82;;;6.05;;
62256;SDS011;48240;52.962;5.790;2023-04-06T12:06:19;9.68;;;5.63;;
62256;SDS011;48240;52.962;5.790;2023-04-06T12:08:45;7.85;;;5.22;;
62256;SDS011;48240;52.962;5.790;2023-04-06T12:11:11;6.18;;;4.45;;
62256;SDS011;48240;52.962;5.790;2023-04-06T12:13:37;7.85;;;4.47;;
62256;SDS011;48240;52.962;5.790;2023-04-06T12:16:04;7.82;;;4.82;;
62256;SDS011;48240;52.962;5.790;2023-04-06T12:18:30;7.60;;;4.53;;
62256;SDS011;48240;52.962;5.790;2023-04-06T12:20:56;6.60;;;4.45;;
62256;SDS011;48240;52.962;5.790;2023-04-06T12:23:22;8.40;;;4.60;;
62256;SDS011;48240;52.962;5.790;2023-04-06T12:25:49;7.82;;;4.05;;
62256;SDS011;48240;52.962;5.790;2023-04-06T12:28:15;7.10;;;4.57;;
62256;SDS011;48240;52.962;5.790;2023-04-06T12:30:41;7.20;;;4.22;;
62256;SDS011;48240;52.962;5.790;2023-04-06T12:33:08;5.75;;;4.20;;
62256;SDS011;48240;52.962;5.790;2023-04-06T12:35:34;5.55;;;4.15;;
62256;SDS011;48240;52.962;5.790;2023-04-06T12:38:00;7.57;;;4.10;;
62256;SDS011;48240;52.962;5.790;2023-04-06T12:40:26;6.38;;;4.35;;
62256;SDS011;48240;52.962;5.790;2023-04-06T12:42:52;6.90;;;4.40;;
62256;SDS011;48240;52.962;5.790;2023-04-06T12:45:18;5.95;;;4.07;;
62256;SDS011;48240;52.962;5.790;2023-04-06T12:47:45;6.45;;;4.10;;
62256;SDS011;48240;52.962;5.790;2023-04-06T12:50:11;5.90;;;4.28;;
62256;SDS011;48240;52.962;5.790;2023-04-06T12:52:37;6.25;;;4.22;;
62256;SDS011;48240;52.962;5.790;2023-04-06T12:55:03;7.65;;;4.43;;
62256;SDS011;48240;52.962;5.790;2023-04-06T12:57:30;6.80;;;4.45;;
62256;SDS011;48240;52.962;5.790;2023-04-06T12:59:57;8.70;;;4.60;;
62256;SDS011;48240;52.962;5.790;2023-04-06T13:02:23;8.60;;;4.00;;
62256;SDS011;48240;52.962;5.790;2023-04-06T13:04:49;7.28;;;4.50;;
62256;SDS011;48240;52.962;5.790;2023-04-06T13:07:16;7.03;;;4.55;;
62256;SDS011;48240;52.962;5.790;2023-04-06T13:09:42;7.40;;;4.93;;
62256;SDS011;48240;52.962;5.790;2023-04-06T13:12:08;7.97;;;4.88;;
62256;SDS011;48240;52.962;5.790;2023-04-06T13:14:34;7.25;;;4.65;;
62256;SDS011;48240;52.962;5.790;2023-04-06T13:17:00;8.27;;;4.80;;
62256;SDS011;48240;52.962;5.790;2023-04-06T13:19:27;5.93;;;4.03;;
62256;SDS011;48240;52.962;5.790;2023-04-06T13:21:53;6.28;;;4.45;;
62256;SDS011;48240;52.962;5.790;2023-04-06T13:24:19;5.65;;;3.75;;
62256;SDS011;48240;52.962;5.790;2023-04-06T13:26:46;6.03;;;4.35;;
62256;SDS011;48240;52.962;5.790;2023-04-06T13:29:12;8.10;;;3.90;;
62256;SDS011;48240;52.962;5.790;2023-04-06T13:31:38;6.25;;;4.20;;
62256;SDS011;48240;52.962;5.790;2023-04-06T13:34:05;6.82;;;4.13;;
62256;SDS011;48240;52.962;5.790;2023-04-06T13:36:31;6.70;;;4.00;;
62256;SDS011;48240;52.962;5.790;2023-04-06T13:38:58;6.57;;;3.92;;
62256;SDS011;48240;52.962;5.790;2023-04-06T13:41:24;6.35;;;4.38;;
62256;SDS011;48240;52.962;5.790;2023-04-06T13:43:51;8.30;;;5.00;;
62256;SDS011;48240;52.962;5.790;2023-04-06T13:46:17;6.97;;;4.30;;
62256;SDS011;48240;52.962;5.790;2023-04-06T13:48:44;8.02;;;4.30;;
62256;SDS011;48240;52.962;5.790;2023-04-06T13:51:11;6.72;;;4.15;;
62256;SDS011;48240;52.962;5.790;2023-04-06T13:53:37;6.13;;;4.53;;
62256;SDS011;48240;52.962;5.790;2023-04-06T13:56:03;6.72;;;4.30;;
62256;SDS011;48240;52.962;5.790;2023-04-06T13:58:29;7.07;;;4.50;;
62256;SDS011;48240;52.962;5.790;2023-04-06T14:01:01;6.68;;;4.55;;
62256;SDS011;48240;52.962;5.790;2023-04-06T14:03:28;6.35;;;4.45;;
62256;SDS011;48240;52.962;5.790;2023-04-06T14:05:54;10.77;;;5.15;;
62256;SDS011;48240;52.962;5.790;2023-04-06T14:08:20;5.57;;;4.10;;
62256;SDS011;48240;52.962;5.790;2023-04-06T14:10:46;7.40;;;4.90;;
62256;SDS011;48240;52.962;5.790;2023-04-06T14:13:12;7.32;;;5.03;;
62256;SDS011;48240;52.962;5.790;2023-04-06T14:15:38;6.10;;;4.53;;
62256;SDS011;48240;52.962;5.790;2023-04-06T14:18:04;6.88;;;4.68;;
62256;SDS011;48240;52.962;5.790;2023-04-06T14:20:31;5.55;;;4.25;;
62256;SDS011;48240;52.962;5.790;2023-04-06T14:22:59;6.90;;;4.40;;
62256;SDS011;48240;52.962;5.790;2023-04-06T14:25:25;6.30;;;4.60;;
62256;SDS011;48240;52.962;5.790;2023-04-06T14:27:51;5.63;;;4.15;;
62256;SDS011;48240;52.962;5.790;2023-04-06T14:30:17;5.22;;;3.90;;
62256;SDS011;48240;52.962;5.790;2023-04-06T14:32:43;5.72;;;3.70;;
62256;SDS011;48240;52.962;5.790;2023-04-06T14:35:09;4.88;;;3.88;;
62256;SDS011;48240;52.962;5.790;2023-04-06T14:37:36;5.60;;;3.80;;
62256;SDS011;48240;52.962;5.790;2023-04-06T14:40:05;5.00;;;3.58;;
62256;SDS011;48240;52.962;5.790;2023-04-06T14:42:31;6.60;;;3.88;;
62256;SDS011;48240;52.962;5.790;2023-04-06T14:44:57;4.40;;;3.75;;
62256;SDS011;48240;52.962;5.790;2023-04-06T14:47:23;4.97;;;3.80;;
62256;SDS011;48240;52.962;5.790;2023-04-06T14:49:49;5.18;;;3.38;;
62256;SDS011;48240;52.962;5.790;2023-04-06T14:52:16;4.43;;;3.47;;
62256;SDS011;48240;52.962;5.790;2023-04-06T14:54:42;4.85;;;3.50;;
62256;SDS011;48240;52.962;5.790;2023-04-06T14:57:08;6.28;;;3.30;;
62256;SDS011;48240;52.962;5.790;2023-04-06T14:59:35;6.13;;;3.33;;
62256;SDS011;48240;52.962;5.790;2023-04-06T15:02:04;5.65;;;3.28;;
62256;SDS011;48240;52.962;5.790;2023-04-06T15:04:30;4.30;;;3.35;;
62256;SDS011;48240;52.962;5.790;2023-04-06T15:06:56;3.85;;;3.15;;
62256;SDS011;48240;52.962;5.790;2023-04-06T15:09:22;5.30;;;3.28;;
62256;SDS011;48240;52.962;5.790;2023-04-06T15:11:48;5.25;;;3.30;;
62256;SDS011;48240;52.962;5.790;2023-04-06T15:14:14;4.80;;;3.28;;
62256;SDS011;48240;52.962;5.790;2023-04-06T15:16:40;5.57;;;3.20;;
62256;SDS011;48240;52.962;5.790;2023-04-06T15:19:07;4.00;;;3.00;;
62256;SDS011;48240;52.962;5.790;2023-04-06T15:21:33;4.32;;;3.00;;
62256;SDS011;48240;52.962;5.790;2023-04-06T15:24:00;5.60;;;3.00;;
62256;SDS011;48240;52.962;5.790;2023-04-06T15:26:26;4.22;;;2.97;;
62256;SDS011;48240;52.962;5.790;2023-04-06T15:28:52;3.33;;;2.28;;
62256;SDS011;48240;52.962;5.790;2023-04-06T15:31:19;3.95;;;2.75;;
62256;SDS011;48240;52.962;5.790;2023-04-06T15:33:45;3.03;;;2.33;;
62256;SDS011;48240;52.962;5.790;2023-04-06T15:36:24;3.13;;;2.20;;
62256;SDS011;48240;52.962;5.790;2023-04-06T15:38:51;2.65;;;2.22;;
62256;SDS011;48240;52.962;5.790;2023-04-06T15:41:17;3.50;;;2.25;;
62256;SDS011;48240;52.962;5.790;2023-04-06T15:43:45;2.50;;;2.10;;
62256;SDS011;48240;52.962;5.790;2023-04-06T15:46:11;3.30;;;2.28;;
62256;SDS011;48240;52.962;5.790;2023-04-06T15:48:37;4.20;;;2.45;;
62256;SDS011;48240;52.962;5.790;2023-04-06T15:51:03;3.00;;;2.20;;
62256;SDS011;48240;52.962;5.790;2023-04-06T15:53:29;4.55;;;2.33;;
62256;SDS011;48240;52.962;5.790;2023-04-06T15:55:59;3.33;;;2.00;;
62256;SDS011;48240;52.962;5.790;2023-04-06T15:58:25;3.40;;;1.80;;
62256;SDS011;48240;52.962;5.790;2023-04-06T16:00:52;4.07;;;2.38;;
62256;SDS011;48240;52.962;5.790;2023-04-06T16:03:18;3.75;;;2.30;;
62256;SDS011;48240;52.962;5.790;2023-04-06T16:05:44;4.50;;;2.10;;
62256;SDS011;48240;52.962;5.790;2023-04-06T16:08:11;3.85;;;2.10;;
62256;SDS011;48240;52.962;5.790;2023-04-06T16:10:41;3.22;;;2.45;;
62256;SDS011;48240;52.962;5.790;2023-04-06T16:13:08;4.85;;;2.15;;
62256;SDS011;48240;52.962;5.790;2023-04-06T16:15:34;2.83;;;2.08;;
62256;SDS011;48240;52.962;5.790;2023-04-06T16:18:00;3.17;;;2.22;;
62256;SDS011;48240;52.962;5.790;2023-04-06T16:20:28;3.13;;;2.40;;
62256;SDS011;48240;52.962;5.790;2023-04-06T16:22:55;2.78;;;2.15;;
62256;SDS011;48240;52.962;5.790;2023-04-06T16:25:21;2.35;;;2.00;;
62256;SDS011;48240;52.962;5.790;2023-04-06T16:27:47;2.83;;;2.00;;
62256;SDS011;48240;52.962;5.790;2023-04-06T16:30:13;2.60;;;1.90;;
62256;SDS011;48240;52.962;5.790;2023-04-06T16:32:39;2.08;;;1.85;;
62256;SDS011;48240;52.962;5.790;2023-04-06T16:35:07;3.47;;;2.30;;
62256;SDS011;48240;52.962;5.790;2023-04-06T16:37:33;3.83;;;2.33;;
62256;SDS011;48240;52.962;5.790;2023-04-06T16:40:00;3.15;;;2.10;;
62256;SDS011;48240;52.962;5.790;2023-04-06T16:42:26;3.60;;;2.53;;
62256;SDS011;48240;52.962;5.790;2023-04-06T16:44:52;4.15;;;2.42;;
62256;SDS011;48240;52.962;5.790;2023-04-06T16:47:18;4.35;;;2.75;;
62256;SDS011;48240;52.962;5.790;2023-04-06T16:49:44;5.13;;;2.38;;
62256;SDS011;48240;52.962;5.790;2023-04-06T16:52:11;4.75;;;2.30;;
62256;SDS011;48240;52.962;5.790;2023-04-06T16:54:37;5.18;;;2.72;;
62256;SDS011;48240;52.962;5.790;2023-04-06T16:57:03;3.72;;;2.60;;
62256;SDS011;48240;52.962;5.790;2023-04-06T16:59:29;3.63;;;2.38;;
62256;SDS011;48240;52.962;5.790;2023-04-06T17:01:55;4.28;;;2.72;;
62256;SDS011;48240;52.962;5.790;2023-04-06T17:04:22;4.15;;;2.40;;
62256;SDS011;48240;52.962;5.790;2023-04-06T17:06:48;2.80;;;2.22;;
62256;SDS011;48240;52.962;5.790;2023-04-06T17:09:14;5.25;;;2.25;;
62256;SDS011;48240;52.962;5.790;2023-04-06T17:11:41;5.47;;;2.40;;
62256;SDS011;48240;52.962;5.790;2023-04-06T17:14:07;4.07;;;2.00;;
62256;SDS011;48240;52.962;5.790;2023-04-06T17:16:34;3.65;;;2.60;;
62256;SDS011;48240;52.962;5.790;2023-04-06T17:19:00;3.50;;;2.55;;
62256;SDS011;48240;52.962;5.790;2023-04-06T17:21:26;2.67;;;2.10;;
62256;SDS011;48240;52.962;5.790;2023-04-06T17:23:53;4.20;;;2.30;;
62256;SDS011;48240;52.962;5.790;2023-04-06T17:26:19;4.13;;;2.53;;
62256;SDS011;48240;52.962;5.790;2023-04-06T17:28:45;3.30;;;2.50;;
62256;SDS011;48240;52.962;5.790;2023-04-06T17:31:11;3.78;;;2.15;;
62256;SDS011;48240;52.962;5.790;2023-04-06T17:33:38;4.38;;;2.13;;
62256;SDS011;48240;52.962;5.790;2023-04-06T17:36:05;3.63;;;2.55;;
62256;SDS011;48240;52.962;5.790;2023-04-06T17:38:32;3.63;;;2.50;;
62256;SDS011;48240;52.962;5.790;2023-04-06T17:40:58;4.85;;;2.17;;
62256;SDS011;48240;52.962;5.790;2023-04-06T17:43:25;3.50;;;2.50;;
62256;SDS011;48240;52.962;5.790;2023-04-06T17:45:52;2.85;;;1.95;;
62256;SDS011;48240;52.962;5.790;2023-04-06T17:48:18;4.65;;;2.15;;
62256;SDS011;48240;52.962;5.790;2023-04-06T17:50:44;3.55;;;2.20;;
62256;SDS011;48240;52.962;5.790;2023-04-06T17:53:10;2.72;;;2.15;;
62256;SDS011;48240;52.962;5.790;2023-04-06T17:55:37;4.40;;;2.47;;
62256;SDS011;48240;52.962;5.790;2023-04-06T17:58:03;3.40;;;2.10;;
62256;SDS011;48240;52.962;5.790;2023-04-06T18:00:30;3.05;;;2.30;;
62256;SDS011;48240;52.962;5.790;2023-04-06T18:02:56;2.85;;;2.08;;
62256;SDS011;48240;52.962;5.790;2023-04-06T18:05:23;2.33;;;2.00;;
62256;SDS011;48240;52.962;5.790;2023-04-06T18:07:53;2.42;;;1.88;;
62256;SDS011;48240;52.962;5.790;2023-04-06T18:10:22;3.10;;;2.42;;
62256;SDS011;48240;52.962;5.790;2023-04-06T18:12:48;3.38;;;2.25;;
62256;SDS011;48240;52.962;5.790;2023-04-06T18:15:14;2.92;;;2.17;;
62256;SDS011;48240;52.962;5.790;2023-04-06T18:17:41;2.85;;;2.30;;
62256;SDS011;48240;52.962;5.790;2023-04-06T18:20:07;2.58;;;2.00;;
62256;SDS011;48240;52.962;5.790;2023-04-06T18:22:34;3.00;;;2.30;;
62256;SDS011;48240;52.962;5.790;2023-04-06T18:25:03;3.25;;;2.28;;
62256;SDS011;48240;52.962;5.790;2023-04-06T18:27:30;2.92;;;2.38;;
62256;SDS011;48240;52.962;5.790;2023-04-06T18:29:56;2.75;;;2.08;;
62256;SDS011;48240;52.962;5.790;2023-04-06T18:32:25;3.05;;;2.05;;
62256;SDS011;48240;52.962;5.790;2023-04-06T18:34:57;3.15;;;2.10;;
62256;SDS011;48240;52.962;5.790;2023-04-06T18:37:24;2.28;;;1.90;;
62256;SDS011;48240;52.962;5.790;2023-04-06T18:39:50;4.38;;;2.60;;